sensor_id;sensor_type;location;lat;lon;timestamp;pressure;altitude;pressure_sealevel;temperature;humidity
64064;BME280;50314;50.618;10.642;2023-07-20T00:00:25;96425.59;;;22.23;26.24
64064;BME280;50314;50.618;10.642;2023-07-20T00:02:50;96427.47;;;22.22;26.64
64064;BME280;50314;50.618;10.642;2023-07-20T00:05:16;96431.34;;;22.20;26.41
64064;BME280;50314;50.618;10.642;2023-07-20T00:07:46;96427.03;;;22.19;26.42
64064;BME280;50314;50.618;10.642;2023-07-20T00:10:11;96436.28;;;22.16;26.19
64064;BME280;50314;50.618;10.642;2023-07-20T00:12:37;96433.78;;;22.15;26.40
64064;BME280;50314;50.618;10.642;2023-07-20T00:15:03;96427.78;;;22.13;26.24
64064;BME280;50314;50.618;10.642;2023-07-20T00:17:28;96426.31;;;22.10;26.15
64064;BME280;50314;50.618;10.642;2023-07-20T00:19:54;96422.81;;;22.10;26.29
64064;BME280;50314;50.618;10.642;2023-07-20T00:22:19;96418.47;;;22.09;25.86
64064;BME280;50314;50.618;10.642;2023-07-20T00:24:44;96418.66;;;22.07;25.91
64064;BME280;50314;50.618;10.642;2023-07-20T00:27:10;96426.69;;;22.07;26.05
64064;BME280;50314;50.618;10.642;2023-07-20T00:29:35;96427.91;;;22.04;26.04
64064;BME280;50314;50.618;10.642;2023-07-20T00:32:01;96429.75;;;22.04;26.02
64064;BME280;50314;50.618;10.642;2023-07-20T00:34:26;96433.66;;;22.01;26.20
64064;BME280;50314;50.618;10.642;2023-07-20T00:36:52;96430.34;;;21.99;25.89
64064;BME280;50314;50.618;10.642;2023-07-20T00:39:17;96428.69;;;21.98;26.06
64064;BME280;50314;50.618;10.642;2023-07-20T00:41:43;96427.03;;;21.97;25.75
64064;BME280;50314;50.618;10.642;2023-07-20T00:44:08;96429.09;;;21.95;25.47
64064;BME280;50314;50.618;10.642;2023-07-20T00:46:33;96424.09;;;21.92;25.80
64064;BME280;50314;50.618;10.642;2023-07-20T00:48:59;96434.16;;;21.90;25.96
64064;BME280;50314;50.618;10.642;2023-07-20T00:51:26;96431.88;;;21.87;26.02
64064;BME280;50314;50.618;10.642;2023-07-20T00:53:52;96431.06;;;21.87;25.66
64064;BME280;50314;50.618;10.642;2023-07-20T00:56:19;96423.22;;;21.85;25.90
64064;BME280;50314;50.618;10.642;2023-07-20T00:58:44;96428.75;;;21.84;25.91
64064;BME280;50314;50.618;10.642;2023-07-20T01:01:10;96408.34;;;21.83;25.55
64064;BME280;50314;50.618;10.642;2023-07-20T01:03:36;96423.75;;;21.80;25.76
64064;BME280;50314;50.618;10.642;2023-07-20T01:06:48;96430.06;;;21.73;26.04
64064;BME280;50314;50.618;10.642;2023-07-20T01:09:31;96436.44;;;21.72;25.78
64064;BME280;50314;50.618;10.642;2023-07-20T01:12:08;96431.25;;;21.70;25.79
64064;BME280;50314;50.618;10.642;2023-07-20T01:14:35;96428.41;;;21.72;25.81
64064;BME280;50314;50.618;10.642;2023-07-20T01:17:02;96425.72;;;21.72;25.96
64064;BME280;50314;50.618;10.642;2023-07-20T01:19:28;96425.91;;;21.70;25.71
64064;BME280;50314;50.618;10.642;2023-07-20T01:21:55;96432.47;;;21.68;25.82
64064;BME280;50314;50.618;10.642;2023-07-20T01:27:14;96429.25;;;21.57;25.74
64064;BME280;50314;50.618;10.642;2023-07-20T01:32:29;96426.41;;;21.59;25.93
64064;BME280;50314;50.618;10.642;2023-07-20T01:34:56;96424.09;;;21.56;25.53
64064;BME280;50314;50.618;10.642;2023-07-20T01:37:24;96428.63;;;21.55;25.53
64064;BME280;50314;50.618;10.642;2023-07-20T01:39:54;96431.50;;;21.54;25.50
64064;BME280;50314;50.618;10.642;2023-07-20T01:42:22;96431.69;;;21.52;25.47
64064;BME280;50314;50.618;10.642;2023-07-20T01:44:52;96436.41;;;21.50;25.66
64064;BME280;50314;50.618;10.642;2023-07-20T01:47:18;96441.75;;;21.50;25.40
64064;BME280;50314;50.618;10.642;2023-07-20T01:49:44;96437.44;;;21.49;25.56
64064;BME280;50314;50.618;10.642;2023-07-20T01:52:09;96436.78;;;21.47;25.62
64064;BME280;50314;50.618;10.642;2023-07-20T01:54:35;96438.84;;;21.45;25.53
64064;BME280;50314;50.618;10.642;2023-07-20T01:57:01;96437.16;;;21.44;25.72
64064;BME280;50314;50.618;10.642;2023-07-20T01:59:26;96441.69;;;21.44;25.65
64064;BME280;50314;50.618;10.642;2023-07-20T02:01:52;96441.88;;;21.42;25.55
64064;BME280;50314;50.618;10.642;2023-07-20T02:04:17;96440.22;;;21.41;25.74
64064;BME280;50314;50.618;10.642;2023-07-20T02:06:43;96436.69;;;21.41;25.65
64064;BME280;50314;50.618;10.642;2023-07-20T02:09:08;96437.72;;;21.40;25.68
64064;BME280;50314;50.618;10.642;2023-07-20T02:11:34;96433.19;;;21.40;25.54
64064;BME280;50314;50.618;10.642;2023-07-20T02:13:59;96428.22;;;21.37;25.64
64064;BME280;50314;50.618;10.642;2023-07-20T02:16:25;96424.72;;;21.37;25.64
64064;BME280;50314;50.618;10.642;2023-07-20T02:18:50;96428.41;;;21.35;25.75
64064;BME280;50314;50.618;10.642;2023-07-20T02:21:16;96430.44;;;21.33;25.91
64064;BME280;50314;50.618;10.642;2023-07-20T02:23:41;96430.44;;;21.33;25.77
64064;BME280;50314;50.618;10.642;2023-07-20T02:26:07;96440.31;;;21.33;25.76
64064;BME280;50314;50.618;10.642;2023-07-20T02:28:32;96442.38;;;21.31;25.91
64064;BME280;50314;50.618;10.642;2023-07-20T02:30:57;96443.38;;;21.30;25.84
64064;BME280;50314;50.618;10.642;2023-07-20T02:33:23;96446.25;;;21.28;26.01
64064;BME280;50314;50.618;10.642;2023-07-20T02:35:48;96435.72;;;21.27;25.63
64064;BME280;50314;50.618;10.642;2023-07-20T02:38:14;96432.03;;;21.28;25.98
64064;BME280;50314;50.618;10.642;2023-07-20T02:40:39;96430.34;;;21.27;25.83
64064;BME280;50314;50.618;10.642;2023-07-20T02:43:05;96436.75;;;21.26;26.10
64064;BME280;50314;50.618;10.642;2023-07-20T02:45:30;96432.22;;;21.26;25.97
64064;BME280;50314;50.618;10.642;2023-07-20T02:47:56;96424.19;;;21.26;26.26
64064;BME280;50314;50.618;10.642;2023-07-20T02:50:22;96420.88;;;21.24;26.02
64064;BME280;50314;50.618;10.642;2023-07-20T02:52:47;96425.56;;;21.22;26.14
64064;BME280;50314;50.618;10.642;2023-07-20T02:55:13;96428.44;;;21.21;26.17
64064;BME280;50314;50.618;10.642;2023-07-20T02:57:38;96431.97;;;21.21;26.12
64064;BME280;50314;50.618;10.642;2023-07-20T03:00:04;96433.16;;;21.19;25.97
64064;BME280;50314;50.618;10.642;2023-07-20T03:02:33;96436.81;;;21.18;26.04
64064;BME280;50314;50.618;10.642;2023-07-20T03:04:58;96435.97;;;21.17;26.35
64064;BME280;50314;50.618;10.642;2023-07-20T03:07:27;96435.16;;;21.17;26.29
64064;BME280;50314;50.618;10.642;2023-07-20T03:09:54;96445.03;;;21.16;26.28
64064;BME280;50314;50.618;10.642;2023-07-20T03:12:20;96438.03;;;21.15;26.20
64064;BME280;50314;50.618;10.642;2023-07-20T03:14:46;96442.56;;;21.15;26.17
64064;BME280;50314;50.618;10.642;2023-07-20T03:17:11;96446.22;;;21.13;26.30
64064;BME280;50314;50.618;10.642;2023-07-20T03:19:37;96443.75;;;21.12;26.24
64064;BME280;50314;50.618;10.642;2023-07-20T03:22:02;96452.59;;;21.12;26.39
64064;BME280;50314;50.618;10.642;2023-07-20T03:24:28;96444.78;;;21.11;26.22
64064;BME280;50314;50.618;10.642;2023-07-20T03:26:53;96452.81;;;21.11;26.36
64064;BME280;50314;50.618;10.642;2023-07-20T03:29:18;96454.81;;;21.09;26.12
64064;BME280;50314;50.618;10.642;2023-07-20T03:31:44;96458.53;;;21.08;26.19
64064;BME280;50314;50.618;10.642;2023-07-20T03:34:09;96449.84;;;21.06;26.38
64064;BME280;50314;50.618;10.642;2023-07-20T03:36:35;96455.41;;;21.04;26.52
64064;BME280;50314;50.618;10.642;2023-07-20T03:39:00;96451.03;;;21.03;26.41
64064;BME280;50314;50.618;10.642;2023-07-20T03:41:26;96449.38;;;21.02;26.70
64064;BME280;50314;50.618;10.642;2023-07-20T03:43:51;96454.94;;;21.01;26.37
64064;BME280;50314;50.618;10.642;2023-07-20T03:46:17;96451.41;;;21.00;26.27
64064;BME280;50314;50.618;10.642;2023-07-20T03:48:42;96456.97;;;20.99;26.15
64064;BME280;50314;50.618;10.642;2023-07-20T03:51:07;96456.97;;;20.99;26.21
64064;BME280;50314;50.618;10.642;2023-07-20T03:53:33;96450.78;;;20.98;26.14
64064;BME280;50314;50.618;10.642;2023-07-20T03:55:58;96459.84;;;20.97;26.36
64064;BME280;50314;50.618;10.642;2023-07-20T03:58:24;96455.47;;;20.96;26.39
64064;BME280;50314;50.618;10.642;2023-07-20T04:00:51;96458.97;;;20.97;26.24
64064;BME280;50314;50.618;10.642;2023-07-20T04:03:17;96464.53;;;20.95;26.09
64064;BME280;50314;50.618;10.642;2023-07-20T04:05:43;96477.25;;;20.93;26.33
64064;BME280;50314;50.618;10.642;2023-07-20T04:08:09;96481.97;;;20.91;26.33
64064;BME280;50314;50.618;10.642;2023-07-20T04:10:37;96473.13;;;20.91;26.46
64064;BME280;50314;50.618;10.642;2023-07-20T04:13:03;96478.47;;;20.91;26.25
64064;BME280;50314;50.618;10.642;2023-07-20T04:15:28;96472.25;;;20.90;26.52
64064;BME280;50314;50.618;10.642;2023-07-20T04:17:54;96472.25;;;20.90;26.53
64064;BME280;50314;50.618;10.642;2023-07-20T04:20:22;96471.44;;;20.89;26.46
64064;BME280;50314;50.618;10.642;2023-07-20T04:22:47;96468.75;;;20.89;26.39
64064;BME280;50314;50.618;10.642;2023-07-20T04:25:13;96482.97;;;20.90;26.64
64064;BME280;50314;50.618;10.642;2023-07-20T04:27:38;96482.16;;;20.89;26.24
64064;BME280;50314;50.618;10.642;2023-07-20T04:30:06;96484.00;;;20.89;26.10
64064;BME280;50314;50.618;10.642;2023-07-20T04:32:32;96484.00;;;20.89;26.43
64064;BME280;50314;50.618;10.642;2023-07-20T04:34:59;96492.22;;;20.87;26.37
64064;BME280;50314;50.618;10.642;2023-07-20T04:37:24;96496.09;;;20.85;26.51
64064;BME280;50314;50.618;10.642;2023-07-20T04:39:50;96494.44;;;20.84;26.39
64064;BME280;50314;50.618;10.642;2023-07-20T04:42:15;96488.06;;;20.85;26.31
64064;BME280;50314;50.618;10.642;2023-07-20T04:44:41;96494.44;;;20.84;26.30
64064;BME280;50314;50.618;10.642;2023-07-20T04:47:06;96490.06;;;20.83;26.33
64064;BME280;50314;50.618;10.642;2023-07-20T04:49:34;96488.44;;;20.82;26.33
64064;BME280;50314;50.618;10.642;2023-07-20T04:51:59;96487.59;;;20.81;26.31
64064;BME280;50314;50.618;10.642;2023-07-20T04:54:25;96485.75;;;20.82;26.13
64064;BME280;50314;50.618;10.642;2023-07-20T04:56:52;96488.63;;;20.80;26.27
64064;BME280;50314;50.618;10.642;2023-07-20T04:59:18;96499.31;;;20.80;26.50
64064;BME280;50314;50.618;10.642;2023-07-20T05:01:43;96493.13;;;20.80;26.26
64064;BME280;50314;50.618;10.642;2023-07-20T05:04:09;96496.81;;;20.79;26.49
64064;BME280;50314;50.618;10.642;2023-07-20T05:06:34;96493.13;;;20.80;26.39
64064;BME280;50314;50.618;10.642;2023-07-20T05:09:00;96488.63;;;20.80;26.31
64064;BME280;50314;50.618;10.642;2023-07-20T05:11:25;96489.44;;;20.81;26.25
64064;BME280;50314;50.618;10.642;2023-07-20T05:13:51;96492.13;;;20.81;26.53
64064;BME280;50314;50.618;10.642;2023-07-20T05:16:16;96489.44;;;20.81;26.42
64064;BME280;50314;50.618;10.642;2023-07-20T05:18:42;96494.59;;;20.82;26.59
64064;BME280;50314;50.618;10.642;2023-07-20T05:21:07;96489.09;;;20.84;26.52
64064;BME280;50314;50.618;10.642;2023-07-20T05:23:33;96488.06;;;20.85;26.65
64064;BME280;50314;50.618;10.642;2023-07-20T05:25:59;96482.50;;;20.86;26.61
64064;BME280;50314;50.618;10.642;2023-07-20T05:28:27;96481.69;;;20.86;26.85
64064;BME280;50314;50.618;10.642;2023-07-20T05:30:53;96490.19;;;20.89;26.56
64064;BME280;50314;50.618;10.642;2023-07-20T05:33:22;96490.00;;;20.91;26.69
64064;BME280;50314;50.618;10.642;2023-07-20T05:35:48;96486.97;;;20.94;26.61
64064;BME280;50314;50.618;10.642;2023-07-20T05:38:13;96496.28;;;20.98;26.67
64064;BME280;50314;50.618;10.642;2023-07-20T05:40:41;96481.06;;;20.99;26.86
64064;BME280;50314;50.618;10.642;2023-07-20T05:43:08;96476.16;;;21.02;26.88
64064;BME280;50314;50.618;10.642;2023-07-20T05:45:33;96487.31;;;21.06;26.86
64064;BME280;50314;50.618;10.642;2023-07-20T05:47:58;96484.94;;;21.11;26.85
64064;BME280;50314;50.618;10.642;2023-07-20T05:50:24;96483.34;;;21.17;27.02
64064;BME280;50314;50.618;10.642;2023-07-20T05:52:52;96480.97;;;21.22;27.30
64064;BME280;50314;50.618;10.642;2023-07-20T05:55:18;96487.47;;;21.27;27.04
64064;BME280;50314;50.618;10.642;2023-07-20T05:57:43;96483.19;;;21.33;26.98
64064;BME280;50314;50.618;10.642;2023-07-20T06:00:09;96474.97;;;21.34;27.11
64064;BME280;50314;50.618;10.642;2023-07-20T06:02:35;96484.91;;;21.41;27.12
64064;BME280;50314;50.618;10.642;2023-07-20T06:05:00;96488.72;;;21.46;26.98
64064;BME280;50314;50.618;10.642;2023-07-20T06:07:26;96489.38;;;21.48;27.54
64064;BME280;50314;50.618;10.642;2023-07-20T06:09:52;96497.03;;;21.51;27.43
64064;BME280;50314;50.618;10.642;2023-07-20T06:12:17;96492.50;;;21.52;27.18
64064;BME280;50314;50.618;10.642;2023-07-20T06:14:43;96494.97;;;21.53;27.35
64064;BME280;50314;50.618;10.642;2023-07-20T06:17:08;96494.59;;;21.56;27.64
64064;BME280;50314;50.618;10.642;2023-07-20T06:19:35;96498.75;;;21.59;27.25
64064;BME280;50314;50.618;10.642;2023-07-20T06:22:00;96495.88;;;21.61;27.37
64064;BME280;50314;50.618;10.642;2023-07-20T06:24:26;96494.69;;;21.63;27.54
64064;BME280;50314;50.618;10.642;2023-07-20T06:26:51;96498.19;;;21.64;27.54
64064;BME280;50314;50.618;10.642;2023-07-20T06:29:17;96497.63;;;21.68;27.62
64064;BME280;50314;50.618;10.642;2023-07-20T06:31:43;96488.38;;;21.71;27.61
64064;BME280;50314;50.618;10.642;2023-07-20T06:34:08;96489.84;;;21.73;27.56
64064;BME280;50314;50.618;10.642;2023-07-20T06:36:33;96489.13;;;21.79;27.58
64064;BME280;50314;50.618;10.642;2023-07-20T06:38:59;96488.38;;;21.86;27.73
64064;BME280;50314;50.618;10.642;2023-07-20T06:41:24;96495.47;;;21.93;27.37
64064;BME280;50314;50.618;10.642;2023-07-20T06:43:50;96496.09;;;21.95;27.34
64064;BME280;50314;50.618;10.642;2023-07-20T06:46:15;96495.91;;;21.97;27.11
64064;BME280;50314;50.618;10.642;2023-07-20T06:48:41;96491.38;;;21.97;27.25
64064;BME280;50314;50.618;10.642;2023-07-20T06:51:06;96493.66;;;22.00;27.17
64064;BME280;50314;50.618;10.642;2023-07-20T06:53:32;96485.25;;;22.03;27.14
64064;BME280;50314;50.618;10.642;2023-07-20T06:55:57;96489.19;;;22.08;27.65
64064;BME280;50314;50.618;10.642;2023-07-20T06:58:23;96493.56;;;22.09;27.67
64064;BME280;50314;50.618;10.642;2023-07-20T07:00:49;96487.16;;;22.10;27.52
64064;BME280;50314;50.618;10.642;2023-07-20T07:03:15;96491.50;;;22.11;27.31
64064;BME280;50314;50.618;10.642;2023-07-20T07:05:40;96494.84;;;22.13;27.59
64064;BME280;50314;50.618;10.642;2023-07-20T07:08:06;96491.78;;;22.16;27.31
64064;BME280;50314;50.618;10.642;2023-07-20T07:10:34;96492.00;;;22.21;27.55
64064;BME280;50314;50.618;10.642;2023-07-20T07:13:00;96484.47;;;22.31;27.00
64064;BME280;50314;50.618;10.642;2023-07-20T07:15:26;96486.69;;;22.42;27.09
64064;BME280;50314;50.618;10.642;2023-07-20T07:17:52;96492.50;;;22.46;27.10
64064;BME280;50314;50.618;10.642;2023-07-20T07:20:18;96491.91;;;22.50;26.92
64064;BME280;50314;50.618;10.642;2023-07-20T07:22:43;96494.81;;;22.56;27.32
64064;BME280;50314;50.618;10.642;2023-07-20T07:25:10;96493.59;;;22.58;27.29
64064;BME280;50314;50.618;10.642;2023-07-20T07:27:36;96501.25;;;22.61;27.19
64064;BME280;50314;50.618;10.642;2023-07-20T07:30:05;96493.25;;;22.68;27.15
64064;BME280;50314;50.618;10.642;2023-07-20T07:32:31;96487.13;;;22.74;26.62
64064;BME280;50314;50.618;10.642;2023-07-20T07:34:56;96487.59;;;22.84;27.27
64064;BME280;50314;50.618;10.642;2023-07-20T07:37:23;96480.88;;;22.95;26.87
64064;BME280;50314;50.618;10.642;2023-07-20T07:39:49;96481.16;;;23.07;26.62
64064;BME280;50314;50.618;10.642;2023-07-20T07:42:14;96485.75;;;23.19;26.72
64064;BME280;50314;50.618;10.642;2023-07-20T07:44:40;96482.72;;;23.29;26.70
64064;BME280;50314;50.618;10.642;2023-07-20T07:47:05;96482.16;;;23.40;26.75
64064;BME280;50314;50.618;10.642;2023-07-20T07:49:31;96482.84;;;23.49;26.90
64064;BME280;50314;50.618;10.642;2023-07-20T07:51:56;96477.09;;;23.59;26.50
64064;BME280;50314;50.618;10.642;2023-07-20T07:54:22;96478.97;;;23.65;26.05
64064;BME280;50314;50.618;10.642;2023-07-20T07:56:47;96485.44;;;23.77;25.86
64064;BME280;50314;50.618;10.642;2023-07-20T07:59:13;96489.56;;;23.86;25.84
64064;BME280;50314;50.618;10.642;2023-07-20T08:01:38;96486.47;;;23.89;25.69
64064;BME280;50314;50.618;10.642;2023-07-20T08:04:04;96481.97;;;23.97;25.62
64064;BME280;50314;50.618;10.642;2023-07-20T08:06:29;96492.34;;;24.00;25.40
64064;BME280;50314;50.618;10.642;2023-07-20T08:08:55;96488.59;;;24.01;25.41
64064;BME280;50314;50.618;10.642;2023-07-20T08:11:20;96492.72;;;23.97;25.38
64064;BME280;50314;50.618;10.642;2023-07-20T08:13:46;96490.63;;;23.92;25.06
64064;BME280;50314;50.618;10.642;2023-07-20T08:16:11;96496.41;;;23.89;25.09
64064;BME280;50314;50.618;10.642;2023-07-20T08:18:37;96488.13;;;23.84;25.12
64064;BME280;50314;50.618;10.642;2023-07-20T08:21:02;96491.41;;;23.79;25.42
64064;BME280;50314;50.618;10.642;2023-07-20T08:23:28;96494.91;;;23.73;25.06
64064;BME280;50314;50.618;10.642;2023-07-20T08:25:54;96500.69;;;23.70;25.54
64064;BME280;50314;50.618;10.642;2023-07-20T08:28:19;96504.00;;;23.65;25.46
64064;BME280;50314;50.618;10.642;2023-07-20T08:30:47;96514.09;;;23.63;25.73
64064;BME280;50314;50.618;10.642;2023-07-20T08:33:14;96517.22;;;23.67;25.29
64064;BME280;50314;50.618;10.642;2023-07-20T08:35:40;96516.78;;;24.05;25.50
64064;BME280;50314;50.618;10.642;2023-07-20T08:38:05;96516.41;;;24.48;25.31
64064;BME280;50314;50.618;10.642;2023-07-20T08:40:33;96510.44;;;24.92;24.95
64064;BME280;50314;50.618;10.642;2023-07-20T08:42:59;96505.97;;;25.38;24.30
64064;BME280;50314;50.618;10.642;2023-07-20T08:45:28;96500.03;;;25.81;23.76
64064;BME280;50314;50.618;10.642;2023-07-20T08:47:58;96499.00;;;25.82;23.24
64064;BME280;50314;50.618;10.642;2023-07-20T08:50:26;96497.50;;;25.86;23.19
64064;BME280;50314;50.618;10.642;2023-07-20T08:52:56;96496.22;;;25.95;23.35
64064;BME280;50314;50.618;10.642;2023-07-20T08:55:23;96498.91;;;26.01;23.03
64064;BME280;50314;50.618;10.642;2023-07-20T08:57:50;96500.16;;;25.92;22.78
64064;BME280;50314;50.618;10.642;2023-07-20T09:00:19;96505.63;;;25.79;22.90
64064;BME280;50314;50.618;10.642;2023-07-20T09:02:45;96504.66;;;25.67;22.62
64064;BME280;50314;50.618;10.642;2023-07-20T09:05:11;96516.94;;;25.56;22.86
64064;BME280;50314;50.618;10.642;2023-07-20T09:07:39;96502.22;;;25.45;22.51
64064;BME280;50314;50.618;10.642;2023-07-20T09:10:05;96502.56;;;25.69;22.55
64064;BME280;50314;50.618;10.642;2023-07-20T09:12:35;96503.13;;;26.22;22.03
64064;BME280;50314;50.618;10.642;2023-07-20T09:15:01;96501.09;;;26.75;21.69
64064;BME280;50314;50.618;10.642;2023-07-20T09:17:26;96486.34;;;26.95;21.25
64064;BME280;50314;50.618;10.642;2023-07-20T09:19:52;96489.16;;;27.07;21.20
64064;BME280;50314;50.618;10.642;2023-07-20T09:22:18;96493.09;;;27.11;21.10
64064;BME280;50314;50.618;10.642;2023-07-20T09:24:44;96485.91;;;26.99;20.88
64064;BME280;50314;50.618;10.642;2023-07-20T09:27:10;96496.47;;;26.82;21.30
64064;BME280;50314;50.618;10.642;2023-07-20T09:29:56;96513.28;;;26.59;21.08
64064;BME280;50314;50.618;10.642;2023-07-20T09:32:21;96514.19;;;26.46;21.03
64064;BME280;50314;50.618;10.642;2023-07-20T09:34:49;96514.28;;;26.33;21.29
64064;BME280;50314;50.618;10.642;2023-07-20T09:37:23;96510.41;;;26.22;21.48
64064;BME280;50314;50.618;10.642;2023-07-20T09:39:51;96505.28;;;26.14;21.58
64064;BME280;50314;50.618;10.642;2023-07-20T09:42:17;96511.13;;;26.67;21.17
64064;BME280;50314;50.618;10.642;2023-07-20T09:44:44;96513.53;;;27.26;20.86
64064;BME280;50314;50.618;10.642;2023-07-20T09:47:10;96508.31;;;27.98;20.23
64064;BME280;50314;50.618;10.642;2023-07-20T09:49:41;96510.63;;;28.54;19.33
64064;BME280;50314;50.618;10.642;2023-07-20T09:52:11;96501.16;;;28.99;18.99
64064;BME280;50314;50.618;10.642;2023-07-20T09:54:40;96502.31;;;29.03;18.66
64064;BME280;50314;50.618;10.642;2023-07-20T09:57:09;96486.69;;;29.57;17.76
64064;BME280;50314;50.618;10.642;2023-07-20T09:59:35;96491.06;;;29.58;18.11
64064;BME280;50314;50.618;10.642;2023-07-20T10:02:04;96489.31;;;29.81;17.51
64064;BME280;50314;50.618;10.642;2023-07-20T10:04:34;96493.78;;;30.27;16.98
64064;BME280;50314;50.618;10.642;2023-07-20T10:07:03;96492.00;;;30.21;17.07
64064;BME280;50314;50.618;10.642;2023-07-20T10:09:31;96490.66;;;30.69;16.76
64064;BME280;50314;50.618;10.642;2023-07-20T10:11:58;96490.34;;;31.16;16.29
64064;BME280;50314;50.618;10.642;2023-07-20T10:14:28;96482.78;;;30.84;15.94
64064;BME280;50314;50.618;10.642;2023-07-20T10:17:01;96482.69;;;30.46;15.90
64064;BME280;50314;50.618;10.642;2023-07-20T10:19:32;96489.09;;;30.11;16.44
64064;BME280;50314;50.618;10.642;2023-07-20T10:22:14;96479.22;;;29.76;16.36
64064;BME280;50314;50.618;10.642;2023-07-20T10:24:45;96489.88;;;29.66;16.32
64064;BME280;50314;50.618;10.642;2023-07-20T10:27:11;96494.53;;;29.42;16.96
64064;BME280;50314;50.618;10.642;2023-07-20T10:29:36;96489.94;;;29.19;16.99
64064;BME280;50314;50.618;10.642;2023-07-20T10:32:03;96492.28;;;29.03;16.98
64064;BME280;50314;50.618;10.642;2023-07-20T10:34:29;96491.31;;;29.33;16.76
64064;BME280;50314;50.618;10.642;2023-07-20T10:36:55;96481.19;;;29.40;17.07
64064;BME280;50314;50.618;10.642;2023-07-20T10:39:31;96479.06;;;29.42;17.10
64064;BME280;50314;50.618;10.642;2023-07-20T10:42:01;96481.06;;;29.35;16.70
64064;BME280;50314;50.618;10.642;2023-07-20T10:44:29;96478.00;;;29.55;16.90
64064;BME280;50314;50.618;10.642;2023-07-20T10:47:02;96468.09;;;29.78;15.95
64064;BME280;50314;50.618;10.642;2023-07-20T10:49:33;96476.28;;;29.66;16.33
64064;BME280;50314;50.618;10.642;2023-07-20T10:51:59;96482.94;;;29.46;16.44
64064;BME280;50314;50.618;10.642;2023-07-20T10:56:51;96475.69;;;29.12;16.34
64064;BME280;50314;50.618;10.642;2023-07-20T11:01:48;96491.09;;;28.76;16.63
64064;BME280;50314;50.618;10.642;2023-07-20T11:04:15;96496.63;;;28.57;16.87
64064;BME280;50314;50.618;10.642;2023-07-20T11:06:44;96530.22;;;28.38;16.68
64064;BME280;50314;50.618;10.642;2023-07-20T11:09:11;96531.13;;;28.20;17.52
64064;BME280;50314;50.618;10.642;2023-07-20T11:11:40;96542.22;;;28.00;18.20
64064;BME280;50314;50.618;10.642;2023-07-20T11:14:20;96540.56;;;27.81;18.69
64064;BME280;50314;50.618;10.642;2023-07-20T11:16:47;96544.13;;;27.63;19.37
64064;BME280;50314;50.618;10.642;2023-07-20T11:19:20;96545.38;;;27.42;19.84
64064;BME280;50314;50.618;10.642;2023-07-20T11:21:47;96553.41;;;27.30;20.50
64064;BME280;50314;50.618;10.642;2023-07-20T11:24:14;96542.72;;;27.17;20.97
64064;BME280;50314;50.618;10.642;2023-07-20T11:26:44;96544.50;;;27.05;21.37
64064;BME280;50314;50.618;10.642;2023-07-20T11:29:11;96535.44;;;26.92;21.00
64064;BME280;50314;50.618;10.642;2023-07-20T11:31:41;96543.91;;;26.78;21.06
64064;BME280;50314;50.618;10.642;2023-07-20T11:34:17;96541.88;;;26.66;21.43
64064;BME280;50314;50.618;10.642;2023-07-20T11:36:48;96543.63;;;26.61;21.61
64064;BME280;50314;50.618;10.642;2023-07-20T11:39:15;96532.41;;;26.57;21.56
64064;BME280;50314;50.618;10.642;2023-07-20T11:41:50;96537.75;;;26.64;21.87
64064;BME280;50314;50.618;10.642;2023-07-20T11:44:17;96533.84;;;26.85;21.75
64064;BME280;50314;50.618;10.642;2023-07-20T11:46:43;96531.47;;;26.95;21.65
64064;BME280;50314;50.618;10.642;2023-07-20T11:49:10;96539.31;;;27.03;21.45
64064;BME280;50314;50.618;10.642;2023-07-20T11:51:36;96539.97;;;26.99;21.10
64064;BME280;50314;50.618;10.642;2023-07-20T11:54:04;96537.91;;;26.94;21.14
64064;BME280;50314;50.618;10.642;2023-07-20T11:56:30;96548.56;;;26.89;21.19
64064;BME280;50314;50.618;10.642;2023-07-20T11:58:58;96530.53;;;26.83;20.87
64064;BME280;50314;50.618;10.642;2023-07-20T12:01:26;96536.00;;;26.76;20.92
64064;BME280;50314;50.618;10.642;2023-07-20T12:03:57;96539.38;;;26.71;21.20
64064;BME280;50314;50.618;10.642;2023-07-20T12:06:24;96542.72;;;26.67;21.29
64064;BME280;50314;50.618;10.642;2023-07-20T12:08:50;96535.28;;;26.62;21.29
64064;BME280;50314;50.618;10.642;2023-07-20T12:11:38;96536.81;;;26.52;21.03
64064;BME280;50314;50.618;10.642;2023-07-20T12:14:07;96537.63;;;26.52;21.30
64064;BME280;50314;50.618;10.642;2023-07-20T12:16:33;96534.28;;;26.50;21.63
64064;BME280;50314;50.618;10.642;2023-07-20T12:19:08;96533.31;;;26.44;20.92
64064;BME280;50314;50.618;10.642;2023-07-20T12:21:34;96527.53;;;26.41;21.40
64064;BME280;50314;50.618;10.642;2023-07-20T12:24:02;96527.97;;;26.38;21.22
64064;BME280;50314;50.618;10.642;2023-07-20T12:26:33;96528.59;;;26.33;21.44
64064;BME280;50314;50.618;10.642;2023-07-20T12:28:59;96529.22;;;26.35;21.45
64064;BME280;50314;50.618;10.642;2023-07-20T12:31:25;96529.59;;;26.39;21.33
64064;BME280;50314;50.618;10.642;2023-07-20T12:33:51;96520.00;;;26.43;21.59
64064;BME280;50314;50.618;10.642;2023-07-20T12:36:18;96518.94;;;26.51;21.31
64064;BME280;50314;50.618;10.642;2023-07-20T12:38:43;96514.72;;;26.61;21.16
64064;BME280;50314;50.618;10.642;2023-07-20T12:41:10;96521.28;;;26.72;21.01
64064;BME280;50314;50.618;10.642;2023-07-20T12:43:38;96518.28;;;26.80;21.16
64064;BME280;50314;50.618;10.642;2023-07-20T12:46:04;96509.91;;;26.88;20.93
64064;BME280;50314;50.618;10.642;2023-07-20T12:48:29;96507.16;;;26.95;21.14
64064;BME280;50314;50.618;10.642;2023-07-20T12:50:55;96507.72;;;27.04;21.29
64064;BME280;50314;50.618;10.642;2023-07-20T12:53:21;96501.78;;;27.13;20.52
64064;BME280;50314;50.618;10.642;2023-07-20T12:55:47;96504.03;;;27.16;19.92
64064;BME280;50314;50.618;10.642;2023-07-20T12:58:12;96508.84;;;27.14;20.03